createdAt,value
2019-03-19T00:01:54.096Z,6.25
2019-03-19T00:04:25.615Z,6.27
2019-03-19T00:06:57.097Z,6.30
2019-03-19T00:09:28.595Z,6.36
2019-03-19T00:12:00.112Z,6.38
2019-03-19T00:14:31.629Z,6.39
2019-03-19T00:17:03.129Z,6.40
2019-03-19T00:19:35.723Z,6.37
2019-03-19T00:22:07.207Z,6.30
2019-03-19T00:24:38.718Z,6.31
2019-03-19T00:27:10.248Z,6.27
2019-03-19T00:29:41.774Z,6.23
2019-03-19T00:32:13.286Z,6.15
2019-03-19T00:34:44.781Z,6.11
2019-03-19T00:37:16.308Z,6.01
2019-03-19T00:39:47.908Z,5.99
2019-03-19T00:42:19.388Z,6.00
2019-03-19T00:44:50.896Z,5.86
2019-03-19T00:47:22.418Z,5.87
2019-03-19T00:49:53.969Z,5.81
2019-03-19T00:52:25.468Z,5.78
2019-03-19T00:54:56.950Z,5.72
2019-03-19T00:57:28.683Z,5.77
2019-03-19T01:00:00.340Z,5.75
2019-03-19T01:02:33.599Z,5.72
2019-03-19T01:05:05.827Z,5.70
2019-03-19T01:07:37.326Z,5.75
2019-03-19T01:10:16.831Z,5.69
2019-03-19T01:12:48.341Z,5.71
2019-03-19T01:15:19.957Z,5.65
2019-03-19T01:17:51.491Z,5.65
2019-03-19T01:20:22.988Z,5.58
2019-03-19T01:22:54.548Z,5.56
2019-03-19T01:25:26.122Z,5.60
2019-03-19T01:27:57.697Z,5.66
2019-03-19T01:30:29.175Z,5.66
2019-03-19T01:33:00.763Z,5.63
2019-03-19T01:35:32.287Z,5.61
2019-03-19T01:38:03.830Z,5.62
2019-03-19T01:40:35.331Z,5.56
2019-03-19T01:43:06.831Z,5.61
2019-03-19T01:45:38.330Z,5.67
2019-03-19T01:48:09.842Z,5.67
2019-03-19T01:50:41.336Z,5.71
2019-03-19T01:53:12.840Z,5.76
2019-03-19T01:55:44.400Z,5.79
2019-03-19T01:58:15.970Z,5.78
2019-03-19T02:00:47.487Z,5.77
2019-03-19T02:03:18.981Z,5.81
2019-03-19T02:05:50.484Z,5.79
2019-03-19T02:08:21.994Z,5.76
2019-03-19T02:10:54.589Z,5.83
2019-03-19T02:13:26.092Z,5.81
2019-03-19T02:15:57.598Z,5.88
2019-03-19T02:18:29.083Z,5.77
2019-03-19T02:21:00.588Z,5.79
2019-03-19T02:23:32.094Z,5.81
2019-03-19T02:26:03.642Z,5.85
2019-03-19T02:28:35.155Z,5.81
2019-03-19T02:31:06.739Z,5.84
2019-03-19T02:33:38.258Z,5.85
2019-03-19T02:36:09.727Z,5.85
2019-03-19T02:38:41.371Z,5.88
2019-03-19T02:41:12.859Z,5.88
2019-03-19T02:43:44.370Z,5.94
2019-03-19T02:46:15.943Z,5.91
2019-03-19T02:48:47.437Z,5.91
2019-03-19T02:51:19.023Z,5.88
2019-03-19T02:53:50.605Z,5.86
2019-03-19T02:56:32.471Z,5.85
2019-03-19T02:58:55.410Z,5.84
2019-03-19T03:01:26.915Z,5.94
2019-03-19T03:03:58.421Z,5.92
2019-03-19T03:06:29.930Z,5.96
2019-03-19T03:09:01.436Z,5.98
2019-03-19T03:11:33.411Z,6.01
2019-03-19T03:14:04.921Z,6.02
2019-03-19T03:16:36.401Z,6.01
2019-03-19T03:19:08.055Z,6.00
2019-03-19T03:21:39.564Z,5.95
2019-03-19T03:24:11.093Z,6.09
2019-03-19T03:26:48.309Z,6.10
2019-03-19T03:29:15.760Z,6.08
2019-03-19T03:31:47.262Z,6.10
2019-03-19T03:34:20.396Z,6.10
2019-03-19T03:36:51.915Z,6.01
2019-03-19T03:39:23.488Z,5.96
2019-03-19T03:41:54.980Z,6.04
2019-03-19T03:44:26.602Z,6.05
2019-03-19T03:46:58.075Z,6.10
2019-03-19T03:49:29.683Z,6.10
2019-03-19T03:52:01.208Z,6.07
2019-03-19T03:54:32.752Z,6.08
2019-03-19T03:57:04.336Z,6.11
2019-03-19T03:59:35.841Z,6.10
2019-03-19T04:02:07.353Z,6.03
2019-03-19T04:04:38.907Z,6.07
2019-03-19T04:07:10.472Z,6.08
2019-03-19T04:09:41.983Z,6.04
2019-03-19T04:12:13.488Z,5.99
2019-03-19T04:14:46.644Z,5.94
2019-03-19T04:17:18.305Z,6.11
2019-03-19T04:19:49.882Z,6.10
2019-03-19T04:22:21.378Z,6.09
2019-03-19T04:24:53.023Z,6.17
2019-03-19T04:27:24.634Z,6.16
2019-03-19T04:29:56.242Z,6.14
2019-03-19T04:32:27.736Z,6.21
2019-03-19T04:34:59.244Z,6.15
2019-03-19T04:37:30.811Z,6.17
2019-03-19T04:40:02.328Z,6.14
2019-03-19T04:42:33.815Z,6.11
2019-03-19T04:45:07.505Z,6.14
2019-03-19T04:47:39.018Z,6.14
2019-03-19T04:50:18.214Z,6.17
2019-03-19T04:52:49.752Z,6.17
2019-03-19T04:55:21.260Z,6.24
2019-03-19T04:57:52.753Z,6.27
2019-03-19T05:00:24.249Z,6.24
2019-03-19T05:02:55.737Z,6.26
2019-03-19T05:05:27.313Z,6.28
2019-03-19T05:07:58.890Z,6.25
2019-03-19T05:10:30.397Z,6.18
2019-03-19T05:13:01.984Z,6.22
2019-03-19T05:15:33.512Z,6.27
2019-03-19T05:18:05.038Z,6.29
2019-03-19T05:20:36.614Z,6.34
2019-03-19T05:23:08.118Z,6.39
2019-03-19T05:25:39.626Z,6.34
2019-03-19T05:28:11.144Z,6.37
2019-03-19T05:30:42.658Z,6.39
2019-03-19T05:33:14.180Z,6.39
2019-03-19T05:35:45.821Z,6.42
2019-03-19T05:38:17.352Z,6.47
2019-03-19T05:40:48.876Z,6.51
2019-03-19T05:43:20.382Z,6.51
2019-03-19T05:45:51.911Z,6.64
2019-03-19T05:48:23.491Z,6.60
2019-03-19T05:50:55.008Z,6.60
2019-03-19T05:53:26.549Z,6.62
2019-03-19T05:55:58.067Z,6.66
2019-03-19T05:58:29.618Z,6.71
2019-03-19T06:01:01.132Z,6.78
2019-03-19T06:03:32.709Z,6.76
2019-03-19T06:06:04.221Z,6.75
2019-03-19T06:08:35.768Z,6.76
2019-03-19T06:11:07.300Z,6.70
2019-03-19T06:13:38.755Z,6.77
2019-03-19T06:16:11.337Z,6.87
2019-03-19T06:18:42.892Z,6.92
2019-03-19T06:21:14.371Z,6.98
2019-03-19T06:23:45.888Z,7.05
2019-03-19T06:26:17.379Z,7.16
2019-03-19T06:28:48.884Z,7.14
2019-03-19T06:31:20.374Z,7.12
2019-03-19T06:33:51.917Z,7.08
2019-03-19T06:36:23.386Z,7.14
2019-03-19T06:38:54.915Z,7.17
2019-03-19T06:41:26.552Z,7.20
2019-03-19T06:43:58.127Z,7.27
2019-03-19T06:46:29.617Z,7.40
2019-03-19T06:49:01.186Z,7.48
2019-03-19T06:51:32.763Z,7.47
2019-03-19T06:54:04.286Z,7.45
2019-03-19T06:56:35.850Z,7.44
2019-03-19T06:59:07.429Z,7.45
2019-03-19T07:01:38.951Z,7.62
2019-03-19T07:04:10.494Z,7.61
2019-03-19T07:06:41.998Z,7.73
2019-03-19T07:09:13.517Z,7.81
2019-03-19T07:11:45.019Z,7.88
2019-03-19T07:14:16.531Z,7.80
2019-03-19T07:16:48.035Z,7.81
2019-03-19T07:19:19.553Z,7.76
2019-03-19T07:21:51.068Z,7.80
2019-03-19T07:24:22.635Z,7.90
2019-03-19T07:26:54.206Z,7.91
2019-03-19T07:29:25.774Z,7.90
2019-03-19T07:31:57.259Z,7.86
2019-03-19T07:34:28.769Z,7.80
2019-03-19T07:37:00.267Z,7.87
2019-03-19T07:39:31.758Z,7.85
2019-03-19T07:42:03.245Z,7.83
2019-03-19T07:44:39.442Z,7.82
2019-03-19T07:47:11.507Z,7.74
2019-03-19T07:49:44.810Z,7.85
2019-03-19T07:52:16.474Z,7.71
2019-03-19T07:54:47.990Z,7.74
2019-03-19T07:57:19.488Z,7.89
2019-03-19T07:59:51.081Z,7.85
2019-03-19T08:02:22.570Z,7.60
2019-03-19T08:04:54.097Z,7.57
2019-03-19T08:07:25.621Z,7.68
2019-03-19T08:09:57.144Z,7.71
2019-03-19T08:12:28.655Z,7.83
2019-03-19T08:15:00.252Z,7.98
2019-03-19T08:17:31.753Z,8.11
2019-03-19T08:20:03.530Z,8.18
2019-03-19T08:22:35.026Z,8.24
2019-03-19T08:25:11.484Z,8.10
2019-03-19T08:27:44.232Z,8.15
2019-03-19T08:30:27.024Z,8.08
2019-03-19T08:33:19.538Z,8.17
2019-03-19T08:36:09.041Z,8.27
2019-03-19T08:38:33.407Z,8.37
2019-03-19T08:41:06.108Z,8.34
2019-03-19T08:43:47.201Z,8.33
2019-03-19T08:46:20.890Z,8.47
2019-03-19T08:49:00.526Z,8.49
2019-03-19T08:55:27.930Z,8.39
2019-03-19T08:57:59.442Z,8.46
2019-03-19T09:00:31.006Z,8.37
2019-03-19T09:03:02.573Z,8.32
2019-03-19T09:05:35.155Z,8.16
2019-03-19T09:08:06.650Z,8.27
2019-03-19T09:10:38.279Z,8.31
2019-03-19T09:13:09.812Z,8.39
2019-03-19T09:15:42.482Z,8.44
2019-03-19T09:18:16.043Z,8.57
2019-03-19T09:20:47.280Z,8.60
2019-03-19T09:23:18.778Z,8.59
2019-03-19T09:25:50.282Z,8.42
2019-03-19T09:28:21.783Z,8.28
2019-03-19T09:30:54.605Z,8.09
2019-03-19T09:33:32.584Z,8.14
2019-03-19T09:36:04.087Z,7.88
2019-03-19T09:38:35.730Z,7.98
2019-03-19T09:41:07.241Z,8.05
2019-03-19T09:43:38.739Z,8.26
2019-03-19T09:46:10.262Z,8.30
2019-03-19T09:48:41.840Z,8.49
2019-03-19T09:51:13.362Z,8.62
2019-03-19T09:53:44.929Z,8.73
2019-03-19T09:56:16.471Z,8.48
2019-03-19T09:58:47.989Z,8.36
2019-03-19T10:01:19.534Z,8.11
2019-03-19T10:03:51.542Z,8.31
2019-03-19T10:06:23.209Z,8.58
2019-03-19T10:08:54.727Z,8.82
2019-03-19T10:11:26.384Z,8.92
2019-03-19T10:13:57.911Z,8.76
2019-03-19T10:16:29.505Z,8.94
2019-03-19T10:19:01.157Z,9.08
2019-03-19T10:21:32.685Z,8.93
2019-03-19T10:24:04.246Z,8.83
2019-03-19T10:26:35.834Z,8.82
2019-03-19T10:29:07.331Z,8.57
2019-03-19T10:31:38.963Z,8.70
2019-03-19T10:34:10.476Z,8.74
2019-03-19T10:36:42.017Z,8.89
2019-03-19T10:39:13.674Z,8.97
2019-03-19T10:41:45.235Z,9.05
2019-03-19T10:44:16.823Z,8.97
2019-03-19T10:46:48.354Z,8.97
2019-03-19T10:49:19.850Z,9.11
2019-03-19T10:51:51.345Z,8.94
2019-03-19T10:54:22.859Z,8.60
2019-03-19T10:56:54.497Z,8.60
2019-03-19T10:59:26.318Z,8.69
2019-03-19T11:01:57.833Z,8.89
2019-03-19T11:04:29.409Z,9.01
2019-03-19T11:07:00.917Z,9.36
2019-03-19T11:09:32.494Z,9.58
2019-03-19T11:12:04.004Z,9.65
2019-03-19T11:14:35.584Z,9.73
2019-03-19T11:17:07.161Z,9.53
2019-03-19T11:19:38.737Z,9.49
2019-03-19T11:22:10.228Z,9.66
2019-03-19T11:24:41.818Z,9.77
2019-03-19T11:27:13.376Z,9.77
2019-03-19T11:29:44.876Z,9.89
2019-03-19T11:32:16.378Z,9.93
2019-03-19T11:34:47.900Z,9.95
2019-03-19T11:37:19.416Z,10.08
2019-03-19T11:39:50.917Z,10.22
2019-03-19T11:42:22.449Z,10.17
2019-03-19T11:44:54.030Z,10.08
2019-03-19T11:47:25.548Z,10.22
2019-03-19T11:49:57.143Z,10.26
2019-03-19T11:52:29.868Z,10.09
2019-03-19T11:55:01.393Z,10.16
2019-03-19T11:57:34.182Z,10.14
2019-03-19T12:00:11.674Z,10.54
2019-03-19T12:02:43.431Z,10.91
2019-03-19T12:05:14.945Z,10.81
2019-03-19T12:07:46.443Z,11.18
2019-03-19T12:10:17.969Z,11.38
2019-03-19T12:12:49.529Z,11.51
2019-03-19T12:15:21.038Z,11.49
2019-03-19T12:17:52.629Z,11.45
2019-03-19T12:20:25.264Z,11.24
2019-03-19T12:22:56.853Z,11.02
2019-03-19T12:25:28.374Z,10.97
2019-03-19T12:27:59.878Z,10.76
2019-03-19T12:30:31.375Z,10.58
2019-03-19T12:33:02.894Z,10.51
2019-03-19T12:35:34.378Z,10.33
2019-03-19T12:38:05.944Z,10.52
2019-03-19T12:40:37.739Z,10.43
2019-03-19T12:43:09.311Z,10.51
2019-03-19T12:45:40.808Z,10.44
2019-03-19T12:48:12.319Z,10.37
2019-03-19T12:50:43.848Z,10.45
2019-03-19T12:53:15.429Z,10.42
2019-03-19T12:55:47.004Z,10.37
2019-03-19T12:58:18.592Z,10.28
2019-03-19T13:00:50.085Z,10.21
2019-03-19T13:03:21.664Z,10.36
2019-03-19T13:05:53.175Z,10.28
2019-03-19T13:08:24.679Z,10.30
2019-03-19T13:10:56.174Z,10.34
2019-03-19T13:13:27.678Z,10.40
2019-03-19T13:15:59.201Z,10.38
2019-03-19T13:18:30.810Z,10.38
2019-03-19T13:21:02.303Z,10.06
2019-03-19T13:23:33.785Z,9.94
2019-03-19T13:26:05.300Z,10.20
2019-03-19T13:28:36.817Z,10.36
2019-03-19T13:31:08.335Z,10.32
2019-03-19T13:33:39.909Z,10.26
2019-03-19T13:36:11.419Z,10.17
2019-03-19T13:38:42.930Z,10.30
2019-03-19T13:41:15.239Z,10.36
2019-03-19T13:43:46.728Z,10.41
2019-03-19T13:46:18.242Z,10.41
2019-03-19T13:48:49.822Z,10.45
2019-03-19T13:51:21.330Z,10.47
2019-03-19T13:53:52.891Z,10.52
2019-03-19T13:56:24.402Z,10.50
2019-03-19T13:58:55.902Z,10.47
2019-03-19T14:01:27.482Z,10.47
2019-03-19T14:04:00.623Z,10.50
2019-03-19T14:06:32.267Z,10.51
2019-03-19T14:09:05.364Z,10.43
2019-03-19T14:11:36.896Z,10.52
2019-03-19T14:14:08.475Z,10.43
2019-03-19T14:16:40.040Z,10.53
2019-03-19T14:19:17.584Z,10.43
2019-03-19T14:21:57.999Z,10.34
2019-03-19T14:24:29.171Z,10.44
2019-03-19T14:27:03.737Z,10.56
2019-03-19T14:29:35.314Z,10.64
2019-03-19T14:32:06.947Z,10.69
2019-03-19T14:34:38.517Z,10.32
2019-03-19T14:37:12.390Z,10.22
2019-03-19T14:39:43.245Z,10.26
2019-03-19T14:42:14.750Z,10.33
2019-03-19T14:44:46.267Z,10.33
2019-03-19T14:47:17.782Z,10.43
2019-03-19T14:49:50.037Z,10.48
2019-03-19T14:52:21.599Z,10.53
2019-03-19T14:54:53.150Z,10.59
2019-03-19T14:57:24.663Z,10.62
2019-03-19T14:59:56.247Z,10.77
2019-03-19T15:02:27.812Z,10.91
2019-03-19T15:04:59.326Z,11.02
2019-03-19T15:07:30.836Z,11.12
2019-03-19T15:10:02.324Z,11.14
2019-03-19T15:12:33.923Z,11.15
2019-03-19T15:15:09.515Z,10.90
2019-03-19T15:17:41.028Z,10.66
2019-03-19T15:20:20.634Z,10.27
2019-03-19T15:22:52.295Z,9.90
2019-03-19T15:25:23.909Z,9.63
2019-03-19T15:27:55.486Z,9.40
2019-03-19T15:30:26.968Z,9.15
2019-03-19T15:32:58.532Z,9.08
2019-03-19T15:35:30.047Z,9.10
2019-03-19T15:38:01.635Z,9.03
2019-03-19T15:40:33.210Z,9.11
2019-03-19T15:43:04.766Z,9.10
2019-03-19T15:45:36.263Z,9.18
2019-03-19T15:48:07.810Z,9.12
2019-03-19T15:50:39.389Z,9.08
2019-03-19T15:53:10.956Z,9.04
2019-03-19T15:55:42.455Z,9.03
2019-03-19T15:58:14.018Z,8.91
2019-03-19T16:00:45.639Z,8.71
2019-03-19T16:03:17.188Z,8.40
2019-03-19T16:05:48.695Z,7.92
2019-03-19T16:08:20.387Z,7.57
2019-03-19T16:10:51.879Z,7.44
2019-03-19T16:13:23.389Z,7.30
2019-03-19T16:15:54.904Z,7.14
2019-03-19T16:18:26.414Z,7.15
2019-03-19T16:20:59.155Z,7.20
2019-03-19T16:23:30.729Z,7.20
2019-03-19T16:26:02.272Z,7.33
2019-03-19T16:28:33.811Z,7.37
2019-03-19T16:31:05.397Z,7.38
2019-03-19T16:33:36.908Z,7.44
2019-03-19T16:36:08.484Z,7.44
2019-03-19T16:38:40.062Z,7.55
2019-03-19T16:41:11.548Z,7.70
2019-03-19T16:43:43.048Z,7.78
2019-03-19T16:46:14.619Z,7.96
2019-03-19T16:48:49.139Z,8.00
2019-03-19T16:51:20.646Z,8.07
2019-03-19T16:53:52.153Z,8.14
2019-03-19T16:56:23.649Z,8.13
2019-03-19T16:58:55.212Z,8.05
2019-03-19T17:01:26.794Z,8.03
2019-03-19T17:03:58.315Z,8.01
2019-03-19T17:06:29.831Z,8.00
2019-03-19T17:09:01.384Z,7.98
2019-03-19T17:11:34.573Z,7.98
2019-03-19T17:14:06.081Z,7.94
2019-03-19T17:16:37.663Z,7.92
2019-03-19T17:19:09.259Z,7.83
2019-03-19T17:21:40.917Z,7.82
2019-03-19T17:24:12.485Z,7.72
2019-03-19T17:26:44.004Z,7.61
2019-03-19T17:29:15.554Z,7.55
2019-03-19T17:31:47.045Z,7.51
2019-03-19T17:34:18.621Z,7.53
2019-03-19T17:36:50.116Z,7.49
2019-03-19T17:39:21.754Z,7.40
2019-03-19T17:41:53.268Z,7.44
2019-03-19T17:44:24.842Z,7.36
2019-03-19T17:46:56.425Z,7.28
2019-03-19T17:49:28.075Z,7.24
2019-03-19T17:51:59.642Z,7.26
2019-03-19T17:54:31.206Z,7.25
2019-03-19T17:57:02.715Z,7.25
2019-03-19T17:59:34.224Z,7.22
2019-03-19T18:02:05.792Z,7.18
2019-03-19T18:04:37.302Z,7.22
2019-03-19T18:07:08.889Z,7.21
2019-03-19T18:09:40.392Z,7.19
2019-03-19T18:12:12.011Z,7.17
2019-03-19T18:14:43.551Z,7.11
2019-03-19T18:17:15.054Z,7.02
2019-03-19T18:19:46.812Z,6.96
2019-03-19T18:22:18.324Z,6.95
2019-03-19T18:24:49.914Z,6.91
2019-03-19T18:27:21.407Z,6.86
2019-03-19T18:29:52.914Z,6.82
2019-03-19T18:32:34.665Z,6.79
2019-03-19T18:34:57.800Z,6.79
2019-03-19T18:37:29.303Z,6.79
2019-03-19T18:40:00.848Z,6.68
2019-03-19T18:42:32.533Z,6.44
2019-03-19T18:45:05.577Z,6.26
2019-03-19T18:47:37.143Z,6.08
2019-03-19T18:50:18.224Z,6.18
2019-03-19T18:52:49.740Z,6.16
2019-03-19T18:55:21.256Z,6.13
2019-03-19T18:57:52.755Z,6.10
2019-03-19T19:00:25.103Z,6.10
2019-03-19T19:02:56.605Z,6.11
2019-03-19T19:05:28.118Z,6.12
2019-03-19T19:07:59.620Z,6.04
2019-03-19T19:10:31.284Z,6.05
2019-03-19T19:13:02.871Z,6.14
2019-03-19T19:15:34.449Z,6.22
2019-03-19T19:18:06.070Z,6.19
2019-03-19T19:20:37.579Z,6.26
2019-03-19T19:23:09.094Z,6.30
2019-03-19T19:25:40.735Z,6.31
2019-03-19T19:28:12.240Z,6.34
2019-03-19T19:30:43.767Z,6.33
2019-03-19T19:33:15.274Z,6.32
2019-03-19T19:35:46.764Z,6.36
2019-03-19T19:38:18.288Z,6.33
2019-03-19T19:40:51.528Z,6.33
2019-03-19T19:43:23.048Z,6.25
2019-03-19T19:45:55.711Z,6.20
2019-03-19T19:48:27.237Z,6.22
2019-03-19T19:51:00.491Z,6.17
2019-03-19T19:53:32.016Z,6.08
2019-03-19T19:56:03.817Z,6.02
2019-03-19T19:58:35.400Z,6.05
2019-03-19T20:01:06.912Z,6.09
2019-03-19T20:03:38.846Z,6.09
2019-03-19T20:06:14.031Z,6.18
2019-03-19T20:08:45.547Z,6.22
2019-03-19T20:11:17.172Z,6.19
2019-03-19T20:13:48.680Z,6.22
2019-03-19T20:16:20.181Z,6.18
2019-03-19T20:18:51.717Z,6.20
2019-03-19T20:21:23.278Z,6.21
2019-03-19T20:23:55.243Z,6.20
2019-03-19T20:26:26.944Z,6.07
2019-03-19T20:28:58.540Z,6.07
2019-03-19T20:31:30.104Z,6.04
2019-03-19T20:34:01.690Z,5.97
2019-03-19T20:36:33.225Z,5.90
2019-03-19T20:39:07.594Z,5.78
2019-03-19T20:41:39.242Z,5.73
2019-03-19T20:44:11.965Z,5.67
2019-03-19T20:46:44.781Z,5.60
2019-03-19T20:49:16.568Z,5.62
2019-03-19T20:51:48.159Z,5.67
2019-03-19T20:54:19.902Z,5.73
2019-03-19T20:56:51.620Z,5.75
2019-03-19T20:59:23.122Z,5.70
2019-03-19T21:01:54.695Z,5.76
2019-03-19T21:04:28.954Z,5.83
2019-03-19T21:06:59.610Z,5.86
2019-03-19T21:09:31.116Z,5.86
2019-03-19T21:12:02.634Z,5.86
2019-03-19T21:14:34.306Z,5.88
2019-03-19T21:17:07.769Z,5.81
2019-03-19T21:19:39.361Z,5.75
2019-03-19T21:22:11.000Z,5.73
2019-03-19T21:24:42.559Z,5.70
2019-03-19T21:27:15.390Z,5.60
2019-03-19T21:29:46.970Z,5.60
2019-03-19T21:32:18.555Z,5.59
2019-03-19T21:34:50.216Z,5.57
2019-03-19T21:37:21.731Z,5.54
2019-03-19T21:39:53.310Z,5.51
2019-03-19T21:42:24.822Z,5.44
2019-03-19T21:44:56.342Z,5.20
2019-03-19T21:47:27.886Z,5.09
2019-03-19T21:49:59.401Z,5.08
2019-03-19T21:52:30.969Z,5.13
2019-03-19T21:55:02.666Z,5.07
2019-03-19T21:57:34.229Z,4.93
2019-03-19T22:00:19.492Z,4.88
2019-03-19T22:02:51.162Z,4.88
2019-03-19T22:05:22.748Z,4.86
2019-03-19T22:07:54.245Z,4.85
2019-03-19T22:10:25.836Z,4.72
2019-03-19T22:12:57.618Z,4.66
2019-03-19T22:15:29.238Z,4.60
2019-03-19T22:18:00.781Z,4.60
2019-03-19T22:20:34.554Z,4.61
2019-03-19T22:23:06.140Z,4.61
2019-03-19T22:25:39.380Z,4.59
2019-03-19T22:28:10.964Z,4.50
2019-03-19T22:30:42.473Z,4.41
2019-03-19T22:33:14.063Z,4.34
2019-03-19T22:35:45.580Z,4.17
2019-03-19T22:38:17.102Z,4.16
2019-03-19T22:40:48.891Z,4.01
2019-03-19T22:43:20.671Z,3.99
2019-03-19T22:45:52.167Z,4.06
2019-03-19T22:48:25.325Z,4.10
2019-03-19T22:50:56.968Z,4.13
2019-03-19T22:53:28.503Z,4.10
2019-03-19T22:56:01.581Z,4.10
2019-03-19T22:58:33.119Z,4.01
2019-03-19T23:01:06.000Z,3.96
2019-03-19T23:03:39.190Z,3.91
2019-03-19T23:06:11.756Z,3.84
2019-03-19T23:08:43.324Z,3.75
2019-03-19T23:11:14.826Z,3.66
2019-03-19T23:13:46.349Z,3.70
2019-03-19T23:16:18.011Z,3.66
2019-03-19T23:18:49.534Z,3.59
2019-03-19T23:21:21.035Z,3.59
2019-03-19T23:23:52.608Z,3.54
2019-03-19T23:26:24.181Z,3.55
2019-03-19T23:28:55.771Z,3.49
2019-03-19T23:31:27.296Z,3.43
2019-03-19T23:33:58.894Z,3.33
2019-03-19T23:36:30.483Z,3.37
2019-03-19T23:39:02.001Z,3.24
2019-03-19T23:41:35.362Z,3.31
2019-03-19T23:44:07.827Z,3.33
2019-03-19T23:46:39.339Z,3.29
2019-03-19T23:49:10.903Z,3.21
2019-03-19T23:51:42.480Z,3.21
2019-03-19T23:54:14.060Z,3.13
2019-03-19T23:56:45.677Z,3.07
2019-03-19T23:59:17.262Z,2.97
